マイアミ の空港の天気 - METARとTAF

マイアミ国際空港 ( KMIA / MIA ) - アメリカ フロリダ州マイアミ
飛行場実況気象(Metar)
観測時間10/23 01:53 EDT (10/23 05:53 UTC)
風向・風速静穏 0m/s
視程10km以上
天気現象
なし
気温26.7℃
湿度79%
気圧1015.4hPa
METARKMIA 230553Z 00000KT 10SM CLR 27/23 A2999 RMK AO2 SLP154 60000 T02670228 10289 20267 58015
過去の天気等 Google飛行場航空写真 Wunderground天気予報

過去48時間のMETAR

飛行場予報(TAF)
発表時間: 10/23 01:20 EDT (10/23 05:20 UTC)
予報対象時間: 23日2時 EDT ~ 24日8時 EDT
風向・風速不定 2m/s
視程10km以上
少しの雲 雲底高度 760m
23日12時 EDT から
風向・風速東 4m/s
視程10km以上
天気現象周辺でしゅう雨
全天の4割程度の雲 雲底高度 1070m
全天の8割程度の雲 雲底高度 2130m
23日22時 EDT から
風向・風速東 3m/s
視程10km以上
全天の4割程度の雲 雲底高度 910m
全天の8割程度の雲 雲底高度 1520m
KMIA 230520Z 2306/2412 VRB03KT P6SM FEW025
FM231600 10008KT P6SM VCSH SCT035 BKN070
FM240200 08006KT P6SM SCT030 BKN050